Time;durP1;ratioP1;P1;durP2;ratioP2;P2;SDS_P1;SDS_P2;PMS_P1;PMS_P2;Temp;Humidity;BMP_temperature;BMP_pressure;BME280_temperature;BME280_humidity;BME280_pressure;Samples;Min_cycle;Max_cycle;Signal;HPM_P1;HPM_P2
2022/03/16 00:01:34;;;;;;;26.38;15.07;;;;;;;7.52;88.24;101268.91;5016834;28;20042;-76
2022/03/16 00:03:59;;;;;;;24.75;17.38;;;;;;;7.51;88.19;101272.41;4999184;28;20155;-76
2022/03/16 00:06:25;;;;;;;23.70;15.88;;;;;;;7.59;87.79;101270.81;5008925;28;20029;-76
2022/03/16 00:08:50;;;;;;;24.73;16.85;;;;;;;7.62;88.12;101273.47;5003056;28;20516;-76
2022/03/16 00:11:15;;;;;;;27.60;17.08;;;;;;;7.63;87.55;101272.66;5003521;28;20040;-76
2022/03/16 00:13:41;;;;;;;21.92;15.25;;;;;;;7.61;87.27;101269.97;5004884;28;20037;-76
2022/03/16 00:16:06;;;;;;;24.75;15.18;;;;;;;7.59;86.78;101281.31;5006859;28;20091;-76
2022/03/16 00:18:32;;;;;;;24.88;15.55;;;;;;;7.54;87.29;101286.47;5007086;28;20037;-76
2022/03/16 00:20:59;;;;;;;22.90;15.38;;;;;;;7.46;87.27;101285.47;5024088;28;20042;-76
2022/03/16 00:23:25;;;;;;;25.05;15.32;;;;;;;7.40;87.76;101285.34;5023088;28;20395;-76
2022/03/16 00:25:51;;;;;;;23.77;16.02;;;;;;;7.32;88.77;101282.56;5041254;28;20034;-76
2022/03/16 00:28:16;;;;;;;28.73;17.23;;;;;;;7.31;88.78;101301.81;5007026;28;20492;-77
2022/03/16 00:30:41;;;;;;;25.02;16.15;;;;;;;7.31;88.79;101309.72;5043873;27;20452;-76
2022/03/16 00:33:07;;;;;;;26.42;15.85;;;;;;;7.24;88.77;101310.44;5030704;28;20018;-76
2022/03/16 00:35:32;;;;;;;22.42;15.43;;;;;;;7.20;88.86;101303.34;5013520;28;20042;-76
2022/03/16 00:37:58;;;;;;;22.35;14.52;;;;;;;7.15;89.40;101302.34;5025272;28;20045;-76
2022/03/16 00:40:23;;;;;;;24.08;16.58;;;;;;;7.07;89.69;101306.56;5019959;28;20033;-76
2022/03/16 00:42:48;;;;;;;25.33;14.52;;;;;;;6.99;89.81;101301.16;5012476;28;20040;-76
2022/03/16 00:45:14;;;;;;;25.27;14.73;;;;;;;6.90;90.75;101304.50;5012388;28;20057;-77
2022/03/16 00:47:39;;;;;;;25.33;15.48;;;;;;;6.92;90.54;101305.41;5018810;28;20476;-77
2022/03/16 00:50:06;;;;;;;23.40;15.38;;;;;;;6.95;90.08;101308.09;5038571;28;20028;-77
2022/03/16 00:52:31;;;;;;;21.90;14.43;;;;;;;6.96;89.70;101306.34;5012249;28;20034;-77
2022/03/16 00:54:57;;;;;;;24.70;15.48;;;;;;;6.88;89.71;101303.56;5000043;28;20030;-76
2022/03/16 00:57:23;;;;;;;23.67;15.02;;;;;;;6.80;89.74;101302.50;5000822;28;20030;-76
2022/03/16 00:59:48;;;;;;;30.63;15.85;;;;;;;6.72;90.07;101302.34;5006342;28;20037;-76
2022/03/16 01:02:15;;;;;;;20.40;14.98;;;;;;;6.68;90.56;101302.25;4999220;28;20037;-77
2022/03/16 01:04:41;;;;;;;22.17;13.45;;;;;;;6.66;90.21;101303.97;4993856;28;20409;-77
2022/03/16 01:07:07;;;;;;;24.70;14.95;;;;;;;6.60;90.53;101309.94;5010646;27;20036;-77
2022/03/16 01:09:32;;;;;;;20.60;14.07;;;;;;;6.61;90.87;101310.84;5015966;28;20033;-76
2022/03/16 01:11:57;;;;;;;23.63;15.27;;;;;;;6.65;90.73;101323.16;5019058;28;20480;-77
2022/03/16 01:14:23;;;;;;;21.40;13.15;;;;;;;6.62;90.52;101318.72;5012236;28;20509;-77
2022/03/16 01:16:48;;;;;;;24.50;14.10;;;;;;;6.64;90.52;101318.78;5018848;28;20628;-76
2022/03/16 01:19:14;;;;;;;23.63;14.65;;;;;;;6.64;90.98;101317.03;5007731;28;20384;-76
2022/03/16 01:21:41;;;;;;;23.67;15.13;;;;;;;6.63;90.33;101325.78;5010034;28;20095;-76
2022/03/16 01:24:08;;;;;;;23.83;15.68;;;;;;;6.64;90.31;101318.78;5007590;28;20018;-76
2022/03/16 01:26:34;;;;;;;25.85;16.02;;;;;;;6.61;90.18;101319.59;5015572;28;20071;-76
2022/03/16 01:29:01;;;;;;;25.77;14.88;;;;;;;6.62;90.05;101323.09;5041378;28;20485;-76
2022/03/16 01:31:27;;;;;;;24.92;15.45;;;;;;;6.66;89.75;101330.19;5001997;28;20037;-77
2022/03/16 01:33:52;;;;;;;22.50;14.70;;;;;;;6.62;89.65;101329.22;5016266;28;20389;-77
2022/03/16 01:36:18;;;;;;;27.00;14.35;;;;;;;6.62;89.53;101336.22;5002773;28;20071;-76
2022/03/16 01:38:43;;;;;;;22.75;14.73;;;;;;;6.57;89.51;101336.09;5022344;28;20143;-77
2022/03/16 01:41:09;;;;;;;22.55;14.15;;;;;;;6.52;90.28;101330.78;5005186;28;20026;-77
2022/03/16 01:43:35;;;;;;;25.42;15.57;;;;;;;6.50;90.02;101340.34;5004626;28;20122;-77
2022/03/16 01:46:00;;;;;;;23.58;15.18;;;;;;;6.43;90.22;101332.28;5005910;28;20026;-76
2022/03/16 01:48:25;;;;;;;27.20;15.27;;;;;;;6.42;89.97;101336.66;5000641;28;20384;-76
2022/03/16 01:50:53;;;;;;;27.63;16.45;;;;;;;6.40;90.12;101330.47;5044933;28;20116;-77
2022/03/16 01:53:20;;;;;;;24.85;15.57;;;;;;;6.37;89.97;101346.13;5001268;28;20030;-77
2022/03/16 01:55:47;;;;;;;23.95;15.73;;;;;;;6.28;90.26;101341.53;5016466;28;20160;-77
2022/03/16 01:58:13;;;;;;;23.20;15.35;;;;;;;6.28;90.30;101346.78;5017511;28;20026;-77
2022/03/16 02:00:42;;;;;;;22.38;14.20;;;;;;;6.27;89.74;101357.25;5026319;28;20034;-77
2022/03/16 02:03:07;;;;;;;23.17;15.18;;;;;;;6.18;90.52;101357.00;5018085;28;20037;-77
2022/03/16 02:05:34;;;;;;;27.98;16.15;;;;;;;6.14;90.81;101354.31;5005282;28;20033;-77
2022/03/16 02:07:59;;;;;;;26.35;14.27;;;;;;;6.06;90.94;101361.09;5002844;28;20042;-77
2022/03/16 02:10:25;;;;;;;27.48;15.38;;;;;;;6.06;90.73;101365.47;5018043;28;20091;-76
2022/03/16 02:12:51;;;;;;;28.92;16.38;;;;;;;6.03;91.15;101368.00;5006890;28;20033;-76
2022/03/16 02:15:18;;;;;;;23.55;15.07;;;;;;;6.04;91.00;101373.28;5009189;28;20045;-77
2022/03/16 02:17:45;;;;;;;26.23;15.35;;;;;;;6.00;91.26;101378.38;4999718;28;20063;-76
2022/03/16 02:20:11;;;;;;;27.38;15.00;;;;;;;6.00;91.35;101378.38;5004488;28;20036;-76
2022/03/16 02:22:55;;;;;;;24.08;15.95;;;;;;;5.97;91.47;101394.91;5011797;28;20037;-76
2022/03/16 02:25:21;;;;;;;25.83;15.13;;;;;;;5.99;91.08;101398.47;4993157;28;20071;-76
2022/03/16 02:27:46;;;;;;;30.02;16.45;;;;;;;6.00;91.48;101404.59;5029410;28;20102;-76
2022/03/16 02:30:12;;;;;;;24.50;15.70;;;;;;;5.98;91.22;101407.19;5020618;28;20563;-76
2022/03/16 02:32:37;;;;;;;22.27;15.18;;;;;;;5.98;91.09;101412.44;5005346;28;20376;-77
2022/03/16 02:35:03;;;;;;;23.58;15.70;;;;;;;6.03;91.09;101418.69;5044479;28;20038;-76
2022/03/16 02:37:29;;;;;;;23.70;15.18;;;;;;;6.10;90.95;101423.25;5016053;28;20029;-76
2022/03/16 02:39:55;;;;;;;26.60;16.85;;;;;;;6.15;90.71;101429.47;5014614;28;20057;-76
2022/03/16 02:42:22;;;;;;;23.23;15.00;;;;;;;6.25;90.18;101429.72;5037668;28;20034;-77
2022/03/16 02:44:47;;;;;;;25.40;15.38;;;;;;;6.32;89.72;101436.91;5032616;28;20054;-76
2022/03/16 02:47:13;;;;;;;22.33;13.98;;;;;;;6.37;89.27;101435.28;5001982;28;20066;-76
2022/03/16 02:49:38;;;;;;;24.45;14.90;;;;;;;6.45;89.33;101441.59;5026086;28;20061;-76
2022/03/16 02:52:08;;;;;;;25.52;15.48;;;;;;;6.53;88.62;101444.44;5009468;28;20441;-76
2022/03/16 02:54:33;;;;;;;24.48;15.05;;;;;;;6.63;88.35;101442.88;5021548;28;20065;-76
2022/03/16 02:56:59;;;;;;;23.38;15.18;;;;;;;6.67;88.10;101450.88;5038029;27;20495;-76
2022/03/16 02:59:24;;;;;;;22.48;15.70;;;;;;;6.75;87.36;101457.19;5007201;28;20062;-76
2022/03/16 03:01:49;;;;;;;23.67;15.25;;;;;;;6.72;87.88;101456.25;5049772;27;20117;-76
2022/03/16 03:04:15;;;;;;;24.38;15.77;;;;;;;6.82;87.23;101468.75;5019946;28;20037;-76
2022/03/16 03:06:40;;;;;;;22.70;14.30;;;;;;;6.82;87.08;101460.88;5022798;28;20029;-76
2022/03/16 03:09:06;;;;;;;25.80;17.88;;;;;;;6.81;87.17;101464.31;5035480;28;20024;-76
2022/03/16 03:11:31;;;;;;;22.70;14.63;;;;;;;6.88;86.67;101470.63;4999989;28;20027;-77
2022/03/16 03:13:56;;;;;;;26.00;16.27;;;;;;;6.86;86.96;101472.31;5040146;28;20077;-77
2022/03/16 03:16:22;;;;;;;29.33;15.35;;;;;;;6.86;86.96;101488.06;5034418;28;20041;-76
2022/03/16 03:18:47;;;;;;;23.48;15.32;;;;;;;6.85;87.09;101484.56;5036188;27;20156;-76
2022/03/16 03:21:12;;;;;;;26.92;16.52;;;;;;;6.86;87.22;101485.44;5030695;28;20384;-77
2022/03/16 03:23:38;;;;;;;21.55;14.85;;;;;;;6.87;86.89;101492.47;5030470;28;20036;-76
2022/03/16 03:26:03;;;;;;;23.35;15.05;;;;;;;6.86;87.38;101496.81;5005650;28;20476;-76
2022/03/16 03:28:28;;;;;;;21.85;15.35;;;;;;;6.86;87.21;101502.06;5029465;28;20034;-77
2022/03/16 03:30:54;;;;;;;21.38;15.20;;;;;;;6.84;87.08;101497.63;5023196;28;20178;-77
2022/03/16 03:33:19;;;;;;;28.00;15.98;;;;;;;6.87;87.13;101495.97;5021059;28;20069;-76
2022/03/16 03:35:44;;;;;;;24.63;14.20;;;;;;;6.88;86.64;101497.75;5044373;28;20030;-77
2022/03/16 03:38:10;;;;;;;21.60;14.60;;;;;;;6.89;86.93;101501.25;5017470;28;20045;-76
2022/03/16 03:40:35;;;;;;;23.58;15.45;;;;;;;6.87;86.89;101495.97;5012685;28;20044;-77
2022/03/16 03:43:00;;;;;;;27.50;16.23;;;;;;;6.94;86.40;101505.78;5040946;28;20080;-76
2022/03/16 03:45:26;;;;;;;24.70;15.63;;;;;;;6.98;86.58;101505.00;5015138;28;20030;-76
2022/03/16 03:47:51;;;;;;;24.88;15.20;;;;;;;6.99;86.48;101508.50;5056886;28;20040;-76
2022/03/16 03:50:17;;;;;;;21.98;14.27;;;;;;;6.94;86.34;101510.13;5004491;28;20029;-76
2022/03/16 03:52:42;;;;;;;26.70;15.45;;;;;;;6.97;86.29;101510.22;5012921;28;20026;-76
2022/03/16 03:55:08;;;;;;;25.25;14.85;;;;;;;6.98;86.26;101512.88;5021020;28;20041;-76
2022/03/16 03:57:33;;;;;;;30.52;16.85;;;;;;;6.94;86.16;101521.53;5018693;28;20022;-76
2022/03/16 03:59:58;;;;;;;26.35;15.73;;;;;;;6.91;86.41;101515.31;5012771;28;20032;-76
2022/03/16 04:02:24;;;;;;;24.65;15.23;;;;;;;6.88;86.56;101520.47;5023266;28;20038;-76
2022/03/16 04:04:49;;;;;;;24.00;15.98;;;;;;;6.87;86.61;101529.22;5012920;28;20030;-76
2022/03/16 04:07:14;;;;;;;22.05;16.13;;;;;;;6.82;87.26;101521.22;5002652;28;20116;-77
2022/03/16 04:09:40;;;;;;;26.75;16.23;;;;;;;6.86;86.42;101527.41;5027015;28;20399;-77
2022/03/16 04:12:06;;;;;;;25.00;15.18;;;;;;;6.83;86.90;101529.97;5007432;28;20420;-77
2022/03/16 04:14:31;;;;;;;24.60;15.48;;;;;;;6.81;86.66;101535.16;5009454;28;20400;-76
2022/03/16 04:16:56;;;;;;;25.88;16.38;;;;;;;6.77;87.08;101538.59;5022966;28;20032;-77
2022/03/16 04:19:22;;;;;;;24.25;15.52;;;;;;;6.76;87.02;101548.19;5023266;28;20040;-77
2022/03/16 04:21:47;;;;;;;25.65;15.30;;;;;;;6.76;87.13;101547.31;5029085;28;20042;-77
2022/03/16 04:24:13;;;;;;;23.00;15.75;;;;;;;6.80;86.74;101543.91;5016543;28;20026;-77
2022/03/16 04:26:38;;;;;;;23.40;15.65;;;;;;;6.84;86.58;101556.25;5015090;28;20045;-76
2022/03/16 04:29:04;;;;;;;24.80;15.07;;;;;;;6.79;86.77;101552.63;5022240;28;20030;-77
2022/03/16 04:31:29;;;;;;;22.83;14.90;;;;;;;6.77;86.89;101549.97;5009119;28;20079;-77
2022/03/16 04:33:55;;;;;;;25.20;15.68;;;;;;;6.81;86.21;101558.78;5021127;28;20034;-77
2022/03/16 04:36:21;;;;;;;24.98;14.43;;;;;;;6.83;86.35;101564.97;5023387;28;20037;-77
2022/03/16 04:38:46;;;;;;;23.40;15.07;;;;;;;6.77;86.24;101572.69;5018352;28;20054;-77
2022/03/16 04:41:12;;;;;;;20.40;13.95;;;;;;;6.80;86.34;101578.00;5026940;28;20030;-77
2022/03/16 04:43:37;;;;;;;22.95;13.90;;;;;;;6.79;86.32;101571.00;5008131;28;20044;-77
2022/03/16 04:46:04;;;;;;;23.95;15.18;;;;;;;6.78;86.43;101580.59;5005251;28;20037;-77
2022/03/16 04:48:30;;;;;;;24.17;14.50;;;;;;;6.77;86.64;101591.06;5007612;28;20452;-77
2022/03/16 04:50:55;;;;;;;20.23;14.40;;;;;;;6.76;86.92;101591.91;5006620;28;20125;-77
2022/03/16 04:53:20;;;;;;;26.33;15.52;;;;;;;6.77;86.44;101601.56;5009106;28;20472;-78
2022/03/16 04:55:46;;;;;;;28.67;15.20;;;;;;;6.73;86.96;101604.94;5019471;28;20079;-78
2022/03/16 04:58:12;;;;;;;21.35;14.48;;;;;;;6.72;87.04;101603.16;5006471;28;20033;-77
2022/03/16 05:00:38;;;;;;;21.95;14.98;;;;;;;6.66;87.23;101603.00;5012800;28;20038;-78
2022/03/16 05:03:04;;;;;;;22.05;15.05;;;;;;;6.57;87.21;101606.25;5020751;28;20026;-78
2022/03/16 05:05:29;;;;;;;22.85;15.70;;;;;;;6.53;87.46;101607.91;5032580;28;20053;-78
2022/03/16 05:07:55;;;;;;;23.67;15.60;;;;;;;6.49;87.62;101626.13;5046115;28;20019;-78
2022/03/16 05:10:21;;;;;;;26.75;16.70;;;;;;;6.47;87.33;101619.94;5015105;28;20033;-78
2022/03/16 05:12:46;;;;;;;21.98;14.18;;;;;;;6.47;87.30;101628.75;5025456;28;20082;-79
2022/03/16 05:15:17;;;;;;;23.90;15.02;;;;;;;6.45;88.06;101635.66;5020780;28;20411;-78
2022/03/16 05:17:43;;;;;;;24.95;14.77;;;;;;;6.43;88.16;101641.72;5021533;28;20069;-77
2022/03/16 05:20:09;;;;;;;29.00;16.15;;;;;;;6.44;87.85;101644.34;5018786;28;20038;-78
2022/03/16 05:22:49;;;;;;;28.45;16.05;;;;;;;6.45;87.73;101643.53;5032001;28;20033;-78
2022/03/16 05:25:17;;;;;;;25.63;16.30;;;;;;;6.48;87.61;101645.34;5018658;28;20526;-78
2022/03/16 05:27:42;;;;;;;23.85;15.93;;;;;;;6.48;87.63;101648.84;5027721;28;20522;-78
2022/03/16 05:30:10;;;;;;;24.20;16.45;;;;;;;6.46;87.20;101657.53;5022170;28;20034;-78
2022/03/16 05:32:37;;;;;;;24.70;15.73;;;;;;;6.49;87.53;101650.63;5043131;28;20026;-78
2022/03/16 05:35:03;;;;;;;24.27;15.80;;;;;;;6.41;87.47;101654.75;5033595;28;20034;-78
2022/03/16 05:37:28;;;;;;;25.75;16.38;;;;;;;6.44;87.61;101659.22;5004743;28;20090;-77
2022/03/16 05:39:54;;;;;;;25.70;16.92;;;;;;;6.36;87.54;101651.13;5036664;28;20048;-77
2022/03/16 05:42:19;;;;;;;25.25;15.55;;;;;;;6.40;87.87;101655.63;5001668;28;20030;-77
2022/03/16 05:44:45;;;;;;;24.08;17.27;;;;;;;6.40;88.00;101666.13;5009135;28;20041;-79
2022/03/16 05:47:11;;;;;;;25.42;15.93;;;;;;;6.38;87.98;101667.78;5006376;28;20034;-77
2022/03/16 05:49:37;;;;;;;24.13;15.43;;;;;;;6.36;87.98;101667.72;5006126;28;20053;-78
2022/03/16 05:52:03;;;;;;;27.50;16.42;;;;;;;6.33;88.41;101670.28;5010696;28;20033;-78
2022/03/16 05:54:29;;;;;;;27.02;17.77;;;;;;;6.30;88.44;101674.56;5015460;28;20045;-78
2022/03/16 05:56:54;;;;;;;26.25;16.40;;;;;;;6.25;88.85;101682.28;5012250;28;20038;-79
2022/03/16 05:59:19;;;;;;;26.95;16.45;;;;;;;6.17;89.00;101681.16;4993200;28;20033;-78
2022/03/16 06:01:44;;;;;;;27.65;17.45;;;;;;;6.13;89.02;101674.03;5007721;28;20046;-78
2022/03/16 06:04:10;;;;;;;26.38;16.50;;;;;;;6.10;89.46;101677.47;5005696;28;20056;-78
2022/03/16 06:06:35;;;;;;;26.83;17.20;;;;;;;6.07;89.44;101674.72;5016289;28;20035;-78
2022/03/16 06:09:00;;;;;;;25.63;18.60;;;;;;;6.03;89.46;101683.38;5004953;28;20060;-78
2022/03/16 06:11:27;;;;;;;25.30;17.45;;;;;;;6.05;89.58;101673.81;5002746;28;20079;-78
2022/03/16 06:13:52;;;;;;;25.10;16.30;;;;;;;6.04;89.69;101682.50;4987603;28;20030;-78
2022/03/16 06:16:18;;;;;;;31.42;17.75;;;;;;;6.05;89.87;101686.94;5003998;28;20042;-78
2022/03/16 06:18:43;;;;;;;27.55;17.40;;;;;;;6.05;89.60;101683.38;5005509;28;20038;-78
2022/03/16 06:21:08;;;;;;;31.95;19.88;;;;;;;6.00;89.98;101683.28;5005532;28;20408;-78
2022/03/16 06:23:35;;;;;;;30.77;19.40;;;;;;;6.04;89.71;101684.25;5007911;28;20419;-78
2022/03/16 06:26:04;;;;;;;31.80;19.05;;;;;;;6.04;89.58;101686.88;5012038;28;20026;-78
2022/03/16 06:28:30;;;;;;;31.52;19.95;;;;;;;6.09;89.93;101688.78;5009895;28;20030;-78
2022/03/16 06:30:55;;;;;;;30.55;19.48;;;;;;;6.15;89.97;101694.19;5015175;28;20026;-78
2022/03/16 06:33:21;;;;;;;24.98;16.77;;;;;;;6.16;89.55;101695.13;5014679;28;20154;-78
2022/03/16 06:35:48;;;;;;;26.73;18.77;;;;;;;6.21;89.45;101697.84;5019018;28;20046;-78
2022/03/16 06:38:13;;;;;;;27.25;19.02;;;;;;;6.20;89.56;101694.34;5007092;28;20042;-78
2022/03/16 06:40:39;;;;;;;25.77;18.17;;;;;;;6.24;89.60;101698.84;5013521;28;20034;-78
2022/03/16 06:43:05;;;;;;;30.58;20.48;;;;;;;6.30;89.55;101696.41;5005988;28;20042;-77
2022/03/16 06:45:30;;;;;;;25.70;17.40;;;;;;;6.34;89.22;101702.63;4987584;28;20030;-78
2022/03/16 06:48:00;;;;;;;29.70;20.38;;;;;;;6.40;89.09;101704.56;5004529;28;20133;-78
2022/03/16 06:50:28;;;;;;;27.15;19.08;;;;;;;6.49;89.24;101710.94;5002978;28;20078;-78
2022/03/16 06:52:54;;;;;;;30.73;19.50;;;;;;;6.55;88.68;101715.50;5003742;28;20037;-78
2022/03/16 06:55:19;;;;;;;26.48;18.75;;;;;;;6.61;88.66;101715.69;5008562;28;20158;-78
2022/03/16 06:57:45;;;;;;;30.08;19.00;;;;;;;6.66;88.03;101715.81;5004872;28;20047;-78
2022/03/16 07:00:13;;;;;;;27.30;18.40;;;;;;;6.77;88.10;101715.25;5002060;28;20061;-78
2022/03/16 07:02:54;;;;;;;28.17;19.42;;;;;;;6.85;87.89;101719.84;5000468;28;20046;-78
2022/03/16 07:05:21;;;;;;;29.85;18.60;;;;;;;6.93;87.86;101715.69;5001993;28;20034;-78
2022/03/16 07:07:46;;;;;;;30.77;18.77;;;;;;;7.01;87.20;101712.41;5004312;28;20042;-78
2022/03/16 07:10:12;;;;;;;30.98;18.83;;;;;;;7.06;87.12;101730.03;5032433;28;20118;-78
2022/03/16 07:12:37;;;;;;;27.42;18.67;;;;;;;7.15;86.71;101725.94;5023076;28;20084;-78
2022/03/16 07:15:03;;;;;;;28.20;17.80;;;;;;;7.24;86.41;101730.53;5026689;28;20037;-78
2022/03/16 07:17:28;;;;;;;25.88;19.10;;;;;;;7.31;85.91;101737.75;5020697;28;20035;-78
2022/03/16 07:19:53;;;;;;;29.90;16.92;;;;;;;7.32;86.23;101739.50;5006629;28;20449;-78
2022/03/16 07:22:19;;;;;;;31.40;19.50;;;;;;;7.39;86.01;101738.81;5009622;28;20042;-78
2022/03/16 07:24:44;;;;;;;24.20;16.50;;;;;;;7.51;85.59;101747.88;5023268;28;20056;-77
2022/03/16 07:27:11;;;;;;;28.50;18.00;;;;;;;7.57;84.44;101750.63;5020984;28;20034;-78
2022/03/16 07:29:38;;;;;;;29.38;18.83;;;;;;;7.61;85.13;101749.88;5017590;28;20040;-77
2022/03/16 07:32:04;;;;;;;26.02;17.40;;;;;;;7.72;84.99;101750.16;5016018;28;20575;-77
2022/03/16 07:34:30;;;;;;;26.02;17.52;;;;;;;7.75;83.88;101750.22;5007995;28;20075;-78
2022/03/16 07:36:55;;;;;;;29.35;18.05;;;;;;;7.76;84.32;101755.53;5016899;28;20065;-78
2022/03/16 07:39:20;;;;;;;25.77;18.48;;;;;;;7.87;84.14;101750.53;4994666;28;20369;-78
2022/03/16 07:41:46;;;;;;;25.27;17.15;;;;;;;7.89;83.97;101741.84;5008170;28;20045;-77
2022/03/16 07:44:11;;;;;;;26.52;17.27;;;;;;;8.01;83.83;101748.22;5014344;28;20101;-78
2022/03/16 07:46:36;;;;;;;23.50;16.30;;;;;;;8.11;84.18;101744.97;5017944;28;20037;-78
2022/03/16 07:49:02;;;;;;;27.50;17.00;;;;;;;8.10;83.59;101748.47;5017928;28;20056;-77
2022/03/16 07:51:27;;;;;;;23.25;16.75;;;;;;;8.19;83.80;101743.41;5015286;28;20038;-78
2022/03/16 07:53:53;;;;;;;24.08;16.98;;;;;;;8.21;83.34;101731.19;5012848;28;20090;-77
2022/03/16 07:56:18;;;;;;;26.25;17.02;;;;;;;8.30;83.25;101736.63;5013269;28;20045;-78
2022/03/16 07:58:45;;;;;;;27.33;16.35;;;;;;;8.35;81.94;101742.88;5016147;28;20042;-78
2022/03/16 08:01:10;;;;;;;24.40;16.70;;;;;;;8.51;81.49;101751.16;5008747;28;20113;-78
2022/03/16 08:03:36;;;;;;;22.83;15.30;;;;;;;8.66;81.83;101745.34;5021193;28;20073;-77
2022/03/16 08:06:01;;;;;;;25.67;15.15;;;;;;;8.81;80.55;101739.53;5018628;28;20130;-77
2022/03/16 08:08:26;;;;;;;26.00;16.67;;;;;;;8.88;80.14;101744.03;5011554;28;20065;-78
2022/03/16 08:10:51;;;;;;;26.05;17.25;;;;;;;8.94;80.23;101746.81;5011252;28;20029;-77
2022/03/16 08:13:17;;;;;;;23.42;16.08;;;;;;;9.05;80.02;101744.38;5012928;28;20041;-77
2022/03/16 08:15:43;;;;;;;24.13;16.70;;;;;;;9.16;79.22;101746.34;5015722;28;20087;-78
2022/03/16 08:18:08;;;;;;;20.30;14.65;;;;;;;9.23;78.62;101757.03;5010741;28;20038;-78
2022/03/16 08:20:33;;;;;;;24.52;16.73;;;;;;;9.29;78.43;101757.13;5015099;28;20061;-78
2022/03/16 08:22:59;;;;;;;23.52;15.18;;;;;;;9.38;78.54;101765.22;5011403;28;20087;-77
2022/03/16 08:25:24;;;;;;;22.90;16.45;;;;;;;9.45;77.31;101772.34;5035843;28;20034;-78
2022/03/16 08:27:49;;;;;;;24.27;17.10;;;;;;;9.56;77.92;101777.81;5011098;28;20049;-77
2022/03/16 08:30:16;;;;;;;24.38;18.23;;;;;;;9.69;77.17;101776.28;5003346;28;20129;-77
2022/03/16 08:32:41;;;;;;;26.35;19.02;;;;;;;9.78;75.56;101777.34;5005097;28;20089;-77
2022/03/16 08:35:08;;;;;;;24.30;17.15;;;;;;;9.86;74.92;101782.75;5035647;28;20028;-78
2022/03/16 08:37:34;;;;;;;20.45;14.50;;;;;;;9.87;74.08;101774.84;5023181;28;20037;-77
2022/03/16 08:39:59;;;;;;;24.55;14.30;;;;;;;9.90;73.44;101776.63;5004013;28;20121;-77
2022/03/16 08:42:25;;;;;;;18.38;13.38;;;;;;;9.93;73.38;101779.34;5007119;28;20036;-77
2022/03/16 08:44:52;;;;;;;26.42;19.08;;;;;;;10.06;74.24;101777.78;5026395;28;20034;-77
2022/03/16 08:47:20;;;;;;;21.42;15.93;;;;;;;10.18;73.11;101772.69;5022269;28;20031;-78
2022/03/16 08:49:46;;;;;;;20.15;14.50;;;;;;;10.13;72.87;101778.78;5039577;28;20040;-77
2022/03/16 08:52:12;;;;;;;20.67;14.85;;;;;;;10.21;73.24;101772.72;5030038;28;20109;-78
2022/03/16 08:54:38;;;;;;;20.10;14.65;;;;;;;10.28;72.80;101779.91;5007153;28;20050;-78
2022/03/16 08:57:04;;;;;;;20.00;13.60;;;;;;;10.41;72.80;101773.06;5004461;28;20052;-78
2022/03/16 08:59:29;;;;;;;17.52;12.68;;;;;;;10.45;71.86;101782.81;5004061;28;20060;-78
2022/03/16 09:01:55;;;;;;;20.85;15.30;;;;;;;10.54;72.16;101782.06;5005995;28;20064;-77
2022/03/16 09:04:21;;;;;;;18.80;14.18;;;;;;;10.65;71.67;101769.88;5003354;28;20073;-77
2022/03/16 09:06:48;;;;;;;23.08;15.30;;;;;;;10.80;71.82;101765.69;5011987;28;20125;-77
2022/03/16 09:09:14;;;;;;;18.05;13.38;;;;;;;10.81;70.22;101773.59;5047393;28;20056;-77
2022/03/16 09:11:40;;;;;;;17.48;13.18;;;;;;;10.87;70.94;101780.72;5009692;28;20630;-77
2022/03/16 09:14:06;;;;;;;22.15;13.20;;;;;;;10.94;69.71;101782.56;5005365;28;20028;-77
2022/03/16 09:16:32;;;;;;;17.88;12.50;;;;;;;10.95;69.39;101785.25;5011029;28;20030;-78
2022/03/16 09:18:57;;;;;;;17.77;13.07;;;;;;;11.09;69.02;101785.41;5009785;28;20049;-77
2022/03/16 09:21:25;;;;;;;18.65;12.38;;;;;;;11.15;68.49;101793.38;5010783;28;20030;-77
2022/03/16 09:23:53;;;;;;;16.98;12.27;;;;;;;11.21;68.11;101792.56;5003978;28;20216;-78
2022/03/16 09:26:21;;;;;;;19.45;12.77;;;;;;;11.33;67.60;101787.44;5006460;28;20026;-77
2022/03/16 09:28:47;;;;;;;16.45;12.50;;;;;;;11.36;67.24;101787.47;5010663;28;20061;-77
2022/03/16 09:31:13;;;;;;;18.20;13.68;;;;;;;11.47;66.72;101789.34;5012002;28;20045;-77
2022/03/16 09:33:38;;;;;;;16.65;12.30;;;;;;;11.52;64.88;101782.34;5003953;28;20035;-77
2022/03/16 09:36:08;;;;;;;15.70;10.90;;;;;;;11.73;65.67;101789.59;5003340;28;20140;-77
2022/03/16 09:38:37;;;;;;;15.25;12.18;;;;;;;12.02;65.51;101792.50;5022170;28;20029;-77
2022/03/16 09:41:03;;;;;;;20.70;15.60;;;;;;;12.34;64.38;101790.13;5005635;28;20065;-78
2022/03/16 09:43:32;;;;;;;16.95;12.10;;;;;;;12.65;62.97;101792.94;5010021;28;20034;-77
2022/03/16 09:46:04;;;;;;;16.38;12.55;;;;;;;13.07;61.59;101794.91;5015034;28;20079;-78
2022/03/16 09:48:31;;;;;;;17.88;12.48;;;;;;;13.28;60.32;101790.56;5016404;28;20067;-77
2022/03/16 09:50:58;;;;;;;13.82;10.82;;;;;;;13.38;59.79;101787.06;5012177;28;20041;-77
2022/03/16 09:53:26;;;;;;;14.95;11.40;;;;;;;13.36;59.08;101795.03;5012308;28;20161;-78
2022/03/16 09:55:52;;;;;;;13.38;9.80;;;;;;;13.32;56.92;101792.38;5009421;28;20042;-77
2022/03/16 09:58:20;;;;;;;14.23;9.82;;;;;;;13.21;57.70;101799.38;5014253;28;20052;-78
2022/03/16 10:00:46;;;;;;;15.27;11.65;;;;;;;13.21;58.97;101799.38;5033205;28;20563;-77
2022/03/16 10:03:12;;;;;;;16.50;12.43;;;;;;;13.15;59.35;101801.13;5041495;28;20045;-78
2022/03/16 10:05:38;;;;;;;17.10;12.95;;;;;;;13.16;59.25;101796.72;5022176;28;20037;-78
2022/03/16 10:08:08;;;;;;;14.65;11.43;;;;;;;13.07;59.62;101797.56;5010397;28;20041;-78
2022/03/16 10:13:21;;;;;;;15.27;10.52;;;;;;;12.88;59.03;101807.19;5007880;28;20034;-77
2022/03/16 10:15:47;;;;;;;13.90;10.40;;;;;;;12.79;59.65;101803.63;5010030;28;20087;-78
2022/03/16 10:18:16;;;;;;;13.07;10.10;;;;;;;12.69;59.12;101811.50;5009011;28;20070;-78
2022/03/16 10:20:43;;;;;;;13.27;10.40;;;;;;;12.70;59.06;101805.31;4992082;28;20054;-77
2022/03/16 10:23:10;;;;;;;15.48;10.88;;;;;;;12.88;59.12;101803.66;5010555;28;20045;-78
2022/03/16 10:25:45;;;;;;;16.20;12.50;;;;;;;12.96;57.75;101801.91;5009835;28;20030;-78
2022/03/16 10:28:13;;;;;;;13.77;11.30;;;;;;;12.89;56.92;101803.69;5011176;28;20061;-77
2022/03/16 10:30:54;;;;;;;15.55;11.23;;;;;;;12.69;57.06;101800.91;5016569;28;20040;-78
2022/03/16 10:33:20;;;;;;;15.98;11.30;;;;;;;12.68;57.28;101808.84;5000715;28;20034;-77
2022/03/16 10:36:04;;;;;;;15.25;10.95;;;;;;;12.69;56.56;101806.22;5051342;28;20143;-77
2022/03/16 10:38:36;;;;;;;15.80;11.00;;;;;;;12.71;56.38;101803.59;5004263;28;20098;-77
2022/03/16 10:41:13;;;;;;;13.90;10.85;;;;;;;12.79;56.12;101800.97;5010301;28;20034;-77
2022/03/16 10:46:35;;;;;;;14.13;10.60;;;;;;;12.77;56.72;101797.44;5009735;28;20116;-76
2022/03/16 10:49:06;;;;;;;14.18;11.57;;;;;;;12.71;57.22;101793.88;5010903;28;20030;-76
2022/03/16 10:51:32;;;;;;;14.02;11.07;;;;;;;12.70;56.14;101801.78;5009684;28;20079;-77
2022/03/16 10:54:00;;;;;;;14.43;10.75;;;;;;;12.49;56.41;101799.91;5016279;28;20047;-76
2022/03/16 10:56:27;;;;;;;15.05;10.55;;;;;;;12.57;57.09;101806.13;5006588;28;20042;-76
2022/03/16 10:58:54;;;;;;;18.33;13.68;;;;;;;12.82;57.39;101800.97;5002169;28;20041;-77
2022/03/16 11:01:20;;;;;;;19.58;15.32;;;;;;;13.08;57.19;101791.38;5023519;28;20030;-77
2022/03/16 11:03:49;;;;;;;16.27;12.18;;;;;;;13.15;56.21;101793.19;5009257;28;20057;-77
2022/03/16 11:06:25;;;;;;;14.13;10.80;;;;;;;13.32;55.86;101798.56;5008762;28;20037;-77
2022/03/16 11:08:51;;;;;;;15.63;11.07;;;;;;;13.58;55.85;101790.66;5007548;28;20034;-77
2022/03/16 11:14:03;;;;;;;18.30;14.07;;;;;;;14.28;55.68;101788.91;5008039;28;20030;-77
2022/03/16 11:16:30;;;;;;;16.55;11.73;;;;;;;14.50;54.31;101788.84;5004189;28;20091;-76
2022/03/16 11:19:00;;;;;;;14.98;11.57;;;;;;;14.73;54.00;101787.06;5009231;28;20061;-76